createdAt,value
2023-04-15T00:02:00.008Z,9.63
2023-04-15T00:04:27.612Z,9.62
2023-04-15T00:06:54.716Z,9.57
2023-04-15T00:09:21.429Z,9.44
2023-04-15T00:11:47.781Z,9.44
2023-04-15T00:14:14.186Z,9.42
2023-04-15T00:16:40.805Z,9.45
2023-04-15T00:19:07.160Z,9.43
2023-04-15T00:21:34.036Z,9.44
2023-04-15T00:24:01.157Z,9.44
2023-04-15T00:26:27.895Z,9.46
2023-04-15T00:28:55.558Z,9.47
2023-04-15T00:31:22.095Z,9.48
2023-04-15T00:33:48.735Z,9.50
2023-04-15T00:36:15.562Z,9.45
2023-04-15T00:38:43.195Z,9.47
2023-04-15T00:41:09.530Z,9.46
2023-04-15T00:43:35.970Z,9.48
2023-04-15T00:46:03.839Z,9.45
2023-04-15T00:48:30.278Z,9.45
2023-04-15T00:50:57.851Z,9.44
2023-04-15T00:53:24.192Z,9.52
2023-04-15T00:55:51.316Z,9.53
2023-04-15T00:58:17.689Z,9.52
2023-04-15T01:00:44.096Z,9.48
2023-04-15T01:03:13.915Z,9.52
2023-04-15T01:05:40.406Z,9.44
2023-04-15T01:08:06.800Z,9.41
2023-04-15T01:10:33.388Z,9.41
2023-04-15T01:12:59.836Z,9.35
2023-04-15T01:15:26.344Z,9.36
2023-04-15T01:17:52.877Z,9.31
2023-04-15T01:20:19.465Z,9.32
2023-04-15T01:22:46.499Z,9.37
2023-04-15T01:25:15.148Z,9.32
2023-04-15T01:27:42.327Z,9.38
2023-04-15T01:30:09.080Z,9.34
2023-04-15T01:32:38.063Z,9.37
2023-04-15T01:35:04.974Z,9.32
2023-04-15T01:37:31.351Z,9.28
2023-04-15T01:39:58.102Z,9.25
2023-04-15T01:42:24.744Z,9.16
2023-04-15T01:44:51.090Z,9.19
2023-04-15T01:47:17.631Z,9.20
2023-04-15T01:49:44.052Z,9.20
2023-04-15T01:52:10.396Z,9.16
2023-04-15T01:54:39.200Z,9.16
2023-04-15T01:57:05.660Z,9.10
2023-04-15T01:59:32.175Z,9.15
2023-04-15T02:01:58.744Z,9.12
2023-04-15T02:04:25.166Z,9.14
2023-04-15T02:06:51.524Z,9.03
2023-04-15T02:09:17.873Z,9.02
2023-04-15T02:11:46.594Z,8.96
2023-04-15T02:14:18.520Z,8.98
2023-04-15T02:16:45.026Z,8.90
2023-04-15T02:19:11.453Z,8.92
2023-04-15T02:21:37.944Z,8.89
2023-04-15T02:24:04.445Z,8.89
2023-04-15T02:26:33.566Z,8.85
2023-04-15T02:29:00.165Z,8.79
2023-04-15T02:31:26.912Z,8.85
2023-04-15T02:33:53.316Z,8.87
2023-04-15T02:36:21.654Z,8.90
2023-04-15T02:38:48.006Z,8.89
2023-04-15T02:41:14.537Z,8.88
2023-04-15T02:43:40.975Z,8.87
2023-04-15T02:46:07.430Z,8.95
2023-04-15T02:48:33.919Z,8.91
2023-04-15T02:51:15.478Z,8.94
2023-04-15T02:53:42.985Z,8.97
2023-04-15T02:56:09.439Z,8.95
2023-04-15T02:58:36.395Z,8.94
2023-04-15T03:01:02.966Z,8.90
2023-04-15T03:03:29.586Z,8.94
2023-04-15T03:05:56.201Z,8.91
2023-04-15T03:08:22.642Z,8.96
2023-04-15T03:10:49.185Z,8.95
2023-04-15T03:13:15.940Z,8.94
2023-04-15T03:15:42.581Z,8.88
2023-04-15T03:18:08.971Z,8.93
2023-04-15T03:20:36.508Z,8.89
2023-04-15T03:23:03.288Z,8.94
2023-04-15T03:25:29.656Z,8.89
2023-04-15T03:27:56.113Z,8.91
2023-04-15T03:30:22.573Z,8.85
2023-04-15T03:32:48.936Z,8.86
2023-04-15T03:35:15.777Z,8.86
2023-04-15T03:37:42.186Z,8.86
2023-04-15T03:40:09.861Z,8.84
2023-04-15T03:42:36.321Z,8.89
2023-04-15T03:45:03.509Z,8.89
2023-04-15T03:47:30.006Z,8.87
2023-04-15T03:49:56.452Z,8.87
2023-04-15T03:52:23.890Z,8.85
2023-04-15T03:54:50.302Z,8.83
2023-04-15T03:57:19.107Z,8.72
2023-04-15T03:59:45.766Z,8.78
2023-04-15T04:02:12.257Z,8.76
2023-04-15T04:04:40.177Z,8.71
2023-04-15T04:07:06.651Z,8.76
2023-04-15T04:09:33.011Z,8.79
2023-04-15T04:11:59.368Z,8.80
2023-04-15T04:14:29.808Z,8.79
2023-04-15T04:16:57.420Z,8.78
2023-04-15T04:19:26.551Z,8.67
2023-04-15T04:21:52.898Z,8.74
2023-04-15T04:24:19.231Z,8.74
2023-04-15T04:26:45.564Z,8.75
2023-04-15T04:29:19.919Z,8.67
2023-04-15T04:31:46.947Z,8.69
2023-04-15T04:34:13.975Z,8.77
2023-04-15T04:36:40.514Z,8.73
2023-04-15T04:39:07.126Z,8.74
2023-04-15T04:41:33.629Z,8.72
2023-04-15T04:43:59.980Z,8.67
2023-04-15T04:46:26.385Z,8.74
2023-04-15T04:48:52.824Z,8.78
2023-04-15T04:51:20.091Z,8.79
2023-04-15T04:53:46.616Z,8.81
2023-04-15T04:56:13.034Z,8.76
2023-04-15T04:58:39.422Z,8.77
2023-04-15T05:01:05.848Z,8.78
2023-04-15T05:03:32.381Z,8.76
2023-04-15T05:05:59.209Z,8.83
2023-04-15T05:08:26.027Z,8.91
2023-04-15T05:10:52.485Z,8.92
2023-04-15T05:13:18.964Z,8.96
2023-04-15T05:15:45.576Z,9.05
2023-04-15T05:18:12.014Z,9.03
2023-04-15T05:20:38.537Z,9.02
2023-04-15T05:23:04.928Z,9.02
2023-04-15T05:25:31.705Z,9.08
2023-04-15T05:27:58.122Z,9.07
2023-04-15T05:30:24.468Z,9.10
2023-04-15T05:32:52.110Z,9.06
2023-04-15T05:35:19.066Z,9.15
2023-04-15T05:37:45.948Z,9.31
2023-04-15T05:40:12.996Z,9.35
2023-04-15T05:42:39.363Z,9.32
2023-04-15T05:45:09.173Z,9.40
2023-04-15T05:47:36.195Z,9.46
2023-04-15T05:50:03.226Z,9.49
2023-04-15T05:52:29.598Z,9.48
2023-04-15T05:54:55.968Z,9.65
2023-04-15T05:57:24.642Z,9.66
2023-04-15T05:59:55.787Z,9.62
2023-04-15T06:02:22.868Z,9.70
2023-04-15T06:04:49.234Z,9.74
2023-04-15T06:07:15.727Z,9.79
2023-04-15T06:09:42.213Z,9.88
2023-04-15T06:12:12.170Z,9.83
2023-04-15T06:14:39.334Z,9.89
2023-04-15T06:17:05.822Z,9.91
2023-04-15T06:19:34.733Z,10.02
2023-04-15T06:22:01.536Z,10.05
2023-04-15T06:24:28.090Z,10.04
2023-04-15T06:26:54.438Z,10.03
2023-04-15T06:29:21.227Z,10.14
2023-04-15T06:31:49.297Z,10.17
2023-04-15T06:34:15.803Z,10.20
2023-04-15T06:36:42.171Z,10.21
2023-04-15T06:39:09.632Z,10.31
2023-04-15T06:41:36.116Z,10.17
2023-04-15T06:44:02.512Z,10.09
2023-04-15T06:46:29.368Z,10.04
2023-04-15T06:48:56.148Z,10.14
2023-04-15T06:51:25.593Z,10.21
2023-04-15T06:53:53.405Z,10.20
2023-04-15T06:56:19.786Z,10.14
2023-04-15T06:58:46.315Z,10.23
2023-04-15T07:01:14.282Z,10.33
2023-04-15T07:03:41.989Z,10.36
2023-04-15T07:06:09.535Z,10.33
2023-04-15T07:08:35.958Z,10.44
2023-04-15T07:11:04.988Z,10.37
2023-04-15T07:13:32.450Z,10.31
2023-04-15T07:16:00.056Z,10.47
2023-04-15T07:18:26.839Z,10.58
2023-04-15T07:20:53.188Z,10.35
2023-04-15T07:23:19.626Z,10.46
2023-04-15T07:25:46.018Z,10.55
2023-04-15T07:28:12.888Z,10.42
2023-04-15T07:30:39.562Z,10.45
2023-04-15T07:33:05.962Z,10.43
2023-04-15T07:35:33.245Z,10.54
2023-04-15T07:37:59.674Z,10.52
2023-04-15T07:40:26.587Z,10.60
2023-04-15T07:42:53.086Z,10.60
2023-04-15T07:45:19.507Z,10.56
2023-04-15T07:47:45.973Z,10.65
2023-04-15T07:50:16.757Z,10.57
2023-04-15T07:52:43.693Z,10.56
2023-04-15T07:55:10.064Z,10.60
2023-04-15T07:57:36.833Z,10.61
2023-04-15T08:00:05.845Z,10.61
2023-04-15T08:02:32.651Z,10.61
2023-04-15T08:04:59.838Z,10.60
2023-04-15T08:07:26.512Z,10.49
2023-04-15T08:09:59.964Z,10.64
2023-04-15T08:12:26.403Z,10.64
2023-04-15T08:14:52.808Z,10.64
2023-04-15T08:17:19.221Z,10.69
2023-04-15T08:19:45.551Z,10.60
2023-04-15T08:22:16.038Z,10.71
2023-04-15T08:24:49.081Z,10.64
2023-04-15T08:27:18.916Z,10.51
2023-04-15T08:29:47.159Z,10.50
2023-04-15T08:32:13.553Z,10.65
2023-04-15T08:34:40.485Z,10.60
2023-04-15T08:37:06.996Z,10.56
2023-04-15T08:39:33.563Z,10.58
2023-04-15T08:42:05.686Z,10.62
2023-04-15T08:44:34.131Z,10.66
2023-04-15T08:47:03.051Z,10.68
2023-04-15T08:49:32.913Z,10.65
2023-04-15T08:52:04.659Z,10.67
2023-04-15T08:54:31.049Z,10.75
2023-04-15T08:56:58.050Z,10.73
2023-04-15T08:59:32.022Z,10.71
2023-04-15T09:01:58.993Z,10.79
2023-04-15T09:04:25.413Z,10.75
2023-04-15T09:06:52.314Z,10.82
2023-04-15T09:09:18.784Z,10.65
2023-04-15T09:11:45.408Z,10.68
2023-04-15T09:14:12.289Z,10.76
2023-04-15T09:16:57.713Z,10.85
2023-04-15T09:19:24.530Z,10.91
2023-04-15T09:21:54.625Z,10.85
2023-04-15T09:24:22.835Z,10.76
2023-04-15T09:26:54.846Z,10.79
2023-04-15T09:29:21.320Z,10.88
2023-04-15T09:31:47.813Z,10.96
2023-04-15T09:34:14.180Z,10.90
2023-04-15T09:36:54.835Z,10.86
2023-04-15T09:39:24.209Z,10.84
2023-04-15T09:42:14.085Z,10.67
2023-04-15T09:44:40.494Z,10.89
2023-04-15T09:47:06.923Z,10.85
2023-04-15T09:49:33.376Z,11.02
2023-04-15T09:52:05.490Z,10.98
2023-04-15T09:54:53.275Z,10.98
2023-04-15T09:57:49.315Z,11.07
2023-04-15T10:00:15.915Z,11.11
2023-04-15T10:02:44.749Z,10.90
2023-04-15T10:05:14.480Z,10.94
2023-04-15T10:07:46.937Z,10.79
2023-04-15T10:10:17.499Z,10.88
2023-04-15T10:12:44.043Z,11.03
2023-04-15T10:15:14.389Z,11.04
2023-04-15T10:17:40.760Z,11.02
2023-04-15T10:20:07.723Z,10.99
2023-04-15T10:22:41.809Z,11.01
2023-04-15T10:25:08.408Z,11.18
2023-04-15T10:27:36.797Z,11.37
2023-04-15T10:30:04.350Z,11.38
2023-04-15T10:32:31.125Z,11.23
2023-04-15T10:35:06.887Z,11.38
2023-04-15T10:37:41.775Z,11.43
2023-04-15T10:40:31.045Z,11.46
2023-04-15T10:42:57.833Z,11.46
2023-04-15T10:45:35.030Z,11.43
2023-04-15T10:48:03.551Z,11.52
2023-04-15T10:50:35.923Z,11.45
2023-04-15T10:53:19.845Z,11.51
2023-04-15T10:55:47.478Z,11.55
2023-04-15T10:58:15.061Z,11.56
2023-04-15T11:00:41.456Z,11.42
2023-04-15T11:03:12.097Z,11.49
2023-04-15T11:05:52.271Z,11.57
2023-04-15T11:08:18.902Z,11.37
2023-04-15T11:10:53.178Z,11.29
2023-04-15T11:13:23.668Z,11.12
2023-04-15T11:16:02.617Z,11.06
2023-04-15T11:18:31.598Z,11.21
2023-04-15T11:21:06.995Z,11.35
2023-04-15T11:23:36.771Z,11.45
2023-04-15T11:29:09.319Z,11.34
2023-04-15T11:31:37.460Z,11.54
2023-04-15T11:34:09.023Z,11.60
2023-04-15T11:36:35.542Z,11.51
2023-04-15T11:39:26.747Z,11.51
2023-04-15T11:42:18.745Z,11.50
2023-04-15T11:45:13.018Z,11.55
2023-04-15T11:47:39.811Z,11.74
2023-04-15T11:50:23.272Z,11.79
2023-04-15T11:52:59.435Z,11.74
2023-04-15T11:55:26.370Z,12.08
2023-04-15T11:58:11.636Z,12.12
2023-04-15T12:00:38.204Z,12.26
2023-04-15T12:03:22.943Z,12.36
2023-04-15T12:06:06.013Z,12.37
2023-04-15T12:08:52.036Z,12.22
2023-04-15T12:11:27.647Z,12.35
2023-04-15T12:13:54.941Z,12.35
2023-04-15T12:16:21.374Z,11.98
2023-04-15T12:18:48.640Z,12.00
2023-04-15T12:21:15.504Z,11.93
2023-04-15T12:23:52.051Z,11.64
2023-04-15T12:26:28.659Z,11.61
2023-04-15T12:28:57.551Z,11.54
2023-04-15T12:31:24.148Z,11.40
2023-04-15T12:33:54.016Z,11.41
2023-04-15T12:36:20.341Z,11.38
2023-04-15T12:38:46.732Z,11.42
2023-04-15T12:41:13.111Z,11.25
2023-04-15T12:43:39.470Z,11.31
2023-04-15T12:46:06.941Z,11.33
2023-04-15T12:48:33.405Z,11.42
2023-04-15T12:50:59.942Z,11.24
2023-04-15T12:53:28.501Z,11.15
2023-04-15T12:55:55.001Z,11.05
2023-04-15T12:58:21.523Z,10.92
2023-04-15T13:00:48.654Z,10.95
2023-04-15T13:03:15.531Z,10.87
2023-04-15T13:05:42.063Z,10.87
2023-04-15T13:08:08.436Z,10.98
2023-04-15T13:10:36.478Z,10.90
2023-04-15T13:13:05.854Z,10.99
2023-04-15T13:15:32.260Z,10.87
2023-04-15T13:17:58.660Z,10.86
2023-04-15T13:20:26.828Z,10.78
2023-04-15T13:22:53.402Z,11.09
2023-04-15T13:25:19.877Z,10.93
2023-04-15T13:27:46.646Z,10.89
2023-04-15T13:30:13.229Z,10.76
2023-04-15T13:32:39.644Z,10.80
2023-04-15T13:35:06.187Z,10.70
2023-04-15T13:37:32.626Z,10.74
2023-04-15T13:39:59.042Z,10.89
2023-04-15T13:42:25.498Z,10.95
2023-04-15T13:44:51.840Z,10.85
2023-04-15T13:47:21.515Z,10.75
2023-04-15T13:49:47.950Z,10.67
2023-04-15T13:52:17.068Z,10.69
2023-04-15T13:54:44.607Z,10.74
2023-04-15T13:57:11.084Z,10.73
2023-04-15T13:59:38.902Z,10.73
2023-04-15T14:02:05.612Z,10.65
2023-04-15T14:04:32.214Z,10.60
2023-04-15T14:06:58.970Z,10.48
2023-04-15T14:09:26.483Z,10.55
2023-04-15T14:11:54.269Z,10.63
2023-04-15T14:14:20.793Z,10.64
2023-04-15T14:16:48.467Z,10.59
2023-04-15T14:19:14.915Z,10.54
2023-04-15T14:21:41.301Z,10.57
2023-04-15T14:24:07.697Z,10.59
2023-04-15T14:26:34.129Z,10.60
2023-04-15T14:29:01.226Z,10.59
2023-04-15T14:31:28.382Z,10.62
2023-04-15T14:33:56.188Z,10.62
2023-04-15T14:36:22.569Z,10.60
2023-04-15T14:38:49.574Z,10.55
2023-04-15T14:41:16.130Z,10.62
2023-04-15T14:43:42.604Z,10.60
2023-04-15T14:46:09.199Z,10.61
2023-04-15T14:48:35.737Z,10.64
2023-04-15T14:51:02.276Z,10.67
2023-04-15T14:53:28.640Z,10.98
2023-04-15T14:55:55.210Z,10.59
2023-04-15T14:58:21.603Z,10.55
2023-04-15T15:00:48.115Z,10.41
2023-04-15T15:03:14.784Z,10.35
2023-04-15T15:05:42.953Z,10.34
2023-04-15T15:08:09.684Z,10.28
2023-04-15T15:10:48.580Z,10.18
2023-04-15T15:13:17.111Z,10.22
2023-04-15T15:15:52.404Z,10.14
2023-04-15T15:18:19.993Z,10.15
2023-04-15T15:20:49.534Z,10.14
2023-04-15T15:23:18.515Z,10.11
2023-04-15T15:25:46.371Z,10.13
2023-04-15T15:28:15.056Z,10.12
2023-04-15T15:30:41.460Z,10.05
2023-04-15T15:33:07.975Z,9.99
2023-04-15T15:35:34.532Z,9.99
2023-04-15T15:38:01.716Z,9.94
2023-04-15T15:40:28.133Z,9.94
2023-04-15T15:42:54.484Z,9.96
2023-04-15T15:45:20.854Z,9.92
2023-04-15T15:47:47.446Z,9.88
2023-04-15T15:50:13.939Z,9.89
2023-04-15T15:52:41.742Z,9.77
2023-04-15T15:55:08.384Z,9.78
2023-04-15T15:57:41.825Z,9.77
2023-04-15T16:00:12.014Z,9.79
2023-04-15T16:05:08.233Z,9.75
2023-04-15T16:07:34.619Z,9.79
2023-04-15T16:10:00.963Z,9.76
2023-04-15T16:12:27.353Z,9.75
2023-04-15T16:14:53.710Z,9.79
2023-04-15T16:17:20.129Z,9.79
2023-04-15T16:19:57.932Z,9.79
2023-04-15T16:22:29.724Z,9.82
2023-04-15T16:24:56.066Z,9.77
2023-04-15T16:27:22.414Z,9.75
2023-04-15T16:29:48.884Z,9.81
2023-04-15T16:32:15.357Z,9.62
2023-04-15T16:34:41.927Z,9.68
2023-04-15T16:37:08.364Z,9.68
2023-04-15T16:39:34.779Z,9.72
2023-04-15T16:42:02.434Z,9.65
2023-04-15T16:44:28.937Z,9.59
2023-04-15T16:46:55.725Z,9.59
2023-04-15T16:49:22.205Z,9.58
2023-04-15T16:51:48.591Z,9.56
2023-04-15T16:54:14.957Z,9.62
2023-04-15T16:56:41.285Z,9.58
2023-04-15T16:59:07.679Z,9.57
2023-04-15T17:01:34.087Z,9.49
2023-04-15T17:04:00.677Z,9.48
2023-04-15T17:06:27.207Z,9.56
2023-04-15T17:08:53.573Z,9.54
2023-04-15T17:11:19.990Z,9.52
2023-04-15T17:13:46.832Z,9.52
2023-04-15T17:16:13.319Z,9.53
2023-04-15T17:18:39.700Z,9.54
2023-04-15T17:21:06.263Z,9.58
2023-04-15T17:23:32.695Z,9.58
2023-04-15T17:26:00.134Z,9.58
2023-04-15T17:28:29.151Z,9.58
2023-04-15T17:30:55.667Z,9.52
2023-04-15T17:34:02.198Z,9.58
2023-04-15T17:36:08.816Z,9.57
2023-04-15T17:38:35.276Z,9.56
2023-04-15T17:41:01.692Z,9.56
2023-04-15T17:43:28.146Z,9.56
2023-04-15T17:45:54.526Z,9.60
2023-04-15T17:48:21.088Z,9.56
2023-04-15T17:50:48.132Z,9.55
2023-04-15T17:53:16.188Z,9.53
2023-04-15T17:55:42.504Z,9.55
2023-04-15T17:58:08.915Z,9.52
2023-04-15T18:00:35.415Z,9.49
2023-04-15T18:03:01.960Z,9.46
2023-04-15T18:05:28.459Z,9.48
2023-04-15T18:07:55.000Z,9.45
2023-04-15T18:10:21.601Z,9.38
2023-04-15T18:12:48.095Z,9.37
2023-04-15T18:15:14.593Z,9.22
2023-04-15T18:17:41.009Z,9.25
2023-04-15T18:20:07.560Z,9.19
2023-04-15T18:22:34.232Z,9.22
2023-04-15T18:25:04.237Z,9.16
2023-04-15T18:27:32.335Z,9.19
2023-04-15T18:29:59.152Z,9.12
2023-04-15T18:32:25.819Z,9.10
2023-04-15T18:34:53.275Z,9.09
2023-04-15T18:37:19.973Z,9.05
2023-04-15T18:40:09.274Z,9.09
2023-04-15T18:42:35.934Z,9.09
2023-04-15T18:45:04.750Z,9.07
2023-04-15T18:47:31.257Z,9.03
2023-04-15T18:49:58.437Z,8.94
2023-04-15T18:52:24.929Z,8.99
2023-04-15T18:54:51.470Z,8.98
2023-04-15T18:57:22.720Z,9.01
2023-04-15T18:59:52.331Z,8.96
2023-04-15T19:02:18.985Z,8.92
2023-04-15T19:04:46.688Z,8.92
2023-04-15T19:07:13.087Z,8.89
2023-04-15T19:09:39.591Z,8.84
2023-04-15T19:12:07.054Z,8.84
2023-04-15T19:14:33.625Z,8.82
2023-04-15T19:17:00.113Z,8.85
2023-04-15T19:19:29.040Z,8.81
2023-04-15T19:21:55.547Z,8.89
2023-04-15T19:24:22.313Z,8.81
2023-04-15T19:26:50.274Z,8.77
2023-04-15T19:29:16.713Z,8.74
2023-04-15T19:31:43.077Z,8.78
2023-04-15T19:34:09.410Z,8.70
2023-04-15T19:36:35.911Z,8.69
2023-04-15T19:39:02.569Z,8.71
2023-04-15T19:41:29.036Z,8.64
2023-04-15T19:43:55.502Z,8.61
2023-04-15T19:46:21.888Z,8.55
2023-04-15T19:48:48.322Z,8.59
2023-04-15T19:51:14.774Z,8.59
2023-04-15T19:53:41.325Z,8.56
2023-04-15T19:56:07.665Z,8.45
2023-04-15T19:58:34.068Z,8.44
2023-04-15T20:01:01.392Z,8.41
2023-04-15T20:03:27.896Z,8.35
2023-04-15T20:05:54.431Z,8.35
2023-04-15T20:08:20.898Z,8.28
2023-04-15T20:10:47.257Z,8.22
2023-04-15T20:13:13.660Z,8.26
2023-04-15T20:15:41.350Z,8.24
2023-04-15T20:18:07.806Z,8.15
2023-04-15T20:20:34.863Z,8.11
2023-04-15T20:23:01.217Z,8.07
2023-04-15T20:25:27.582Z,8.03
2023-04-15T20:27:53.977Z,8.06
2023-04-15T20:30:20.688Z,8.03
2023-04-15T20:32:47.104Z,8.00
2023-04-15T20:35:16.578Z,7.90
2023-04-15T20:37:45.085Z,7.93
2023-04-15T20:40:14.373Z,7.90
2023-04-15T20:42:43.164Z,7.94
2023-04-15T20:45:09.896Z,7.90
2023-04-15T20:47:36.277Z,7.87
2023-04-15T20:50:02.734Z,7.83
2023-04-15T20:52:29.110Z,7.89
2023-04-15T20:54:55.629Z,7.80
2023-04-15T20:57:27.007Z,7.81
2023-04-15T20:59:53.342Z,7.78
2023-04-15T21:02:19.868Z,7.83
2023-04-15T21:04:47.654Z,7.76
2023-04-15T21:07:13.986Z,7.78
2023-04-15T21:09:41.863Z,7.67
2023-04-15T21:12:08.566Z,7.70
2023-04-15T21:14:35.854Z,7.71
2023-04-15T21:17:08.496Z,7.69
2023-04-15T21:19:36.975Z,7.68
2023-04-15T21:22:03.377Z,7.68
2023-04-15T21:24:29.898Z,7.62
2023-04-15T21:26:57.219Z,7.64
2023-04-15T21:29:23.751Z,7.67
2023-04-15T21:31:50.355Z,7.71
2023-04-15T21:34:16.865Z,7.71
2023-04-15T21:36:43.234Z,7.71
2023-04-15T21:39:09.630Z,7.77
2023-04-15T21:41:36.902Z,7.76
2023-04-15T21:44:03.540Z,7.69
2023-04-15T21:46:35.004Z,7.69
2023-04-15T21:49:02.063Z,7.71
2023-04-15T21:51:28.431Z,7.74
2023-04-15T21:53:54.892Z,7.67
2023-04-15T21:56:24.027Z,7.70
2023-04-15T21:58:50.410Z,7.67
2023-04-15T22:01:18.102Z,7.68
2023-04-15T22:03:46.947Z,7.74
2023-04-15T22:06:13.829Z,7.66
2023-04-15T22:08:55.039Z,7.67
2023-04-15T22:11:28.615Z,7.71
2023-04-15T22:13:55.468Z,7.65
2023-04-15T22:16:21.892Z,7.60
2023-04-15T22:18:50.458Z,7.65
2023-04-15T22:21:16.910Z,7.65
2023-04-15T22:23:47.284Z,7.60
2023-04-15T22:26:16.008Z,7.65
2023-04-15T22:28:42.470Z,7.61
2023-04-15T22:31:09.011Z,7.55
2023-04-15T22:33:35.561Z,7.62
2023-04-15T22:36:01.970Z,7.60
2023-04-15T22:38:28.356Z,7.51
2023-04-15T22:40:54.987Z,7.50
2023-04-15T22:43:21.348Z,7.47
2023-04-15T22:45:51.135Z,7.53
2023-04-15T22:48:18.025Z,7.58
2023-04-15T22:50:44.429Z,7.61
2023-04-15T22:53:10.811Z,7.59
2023-04-15T22:55:37.178Z,7.61
2023-04-15T22:58:03.596Z,7.58
2023-04-15T23:00:29.946Z,7.52
2023-04-15T23:02:56.453Z,7.56
2023-04-15T23:05:22.909Z,7.61
2023-04-15T23:07:49.285Z,7.60
2023-04-15T23:10:15.750Z,7.63
2023-04-15T23:12:42.090Z,7.70
2023-04-15T23:15:08.711Z,7.62
2023-04-15T23:17:35.319Z,7.59
2023-04-15T23:20:01.779Z,7.56
2023-04-15T23:22:28.181Z,7.57
2023-04-15T23:24:55.567Z,7.56
2023-04-15T23:27:22.809Z,7.52
2023-04-15T23:29:49.143Z,7.50
2023-04-15T23:32:15.534Z,7.53
2023-04-15T23:34:42.034Z,7.55
2023-04-15T23:37:08.435Z,7.59
2023-04-15T23:39:34.796Z,7.63
2023-04-15T23:42:01.248Z,7.47
2023-04-15T23:44:29.925Z,7.48
2023-04-15T23:46:56.361Z,7.50
2023-04-15T23:49:25.054Z,7.46
2023-04-15T23:51:51.492Z,7.44
2023-04-15T23:54:17.863Z,7.44
2023-04-15T23:56:44.213Z,7.30
2023-04-15T23:59:10.786Z,7.35
